createdAt,value
2022-11-25T00:01:35.145Z,90.30
2022-11-25T00:04:03.542Z,93.40
2022-11-25T00:06:34.007Z,95.70
2022-11-25T00:09:07.920Z,88.10
2022-11-25T00:11:38.051Z,94.70
2022-11-25T00:14:07.765Z,92.60
2022-11-25T00:16:36.030Z,94.80
2022-11-25T00:19:04.716Z,92.40
2022-11-25T00:21:34.861Z,91.70
2022-11-25T00:24:06.519Z,94.30
2022-11-25T00:26:36.548Z,94.00
2022-11-25T00:29:07.063Z,90.30
2022-11-25T00:31:37.073Z,93.60
2022-11-25T00:34:05.639Z,95.80
2022-11-25T00:36:36.891Z,91.90
2022-11-25T00:39:06.656Z,95.40
2022-11-25T00:41:53.700Z,95.10
2022-11-25T00:44:38.974Z,94.80
2022-11-25T00:47:16.799Z,94.80
2022-11-25T00:49:51.072Z,97.40
2022-11-25T00:52:25.607Z,91.10
2022-11-25T00:54:54.471Z,92.20
2022-11-25T00:57:24.159Z,97.10
2022-11-25T00:59:52.325Z,95.30
2022-11-25T01:02:20.955Z,95.50
2022-11-25T01:04:49.259Z,97.80
2022-11-25T01:07:18.156Z,99.20
2022-11-25T01:09:46.318Z,99.60
2022-11-25T01:12:14.506Z,102.60
2022-11-25T01:14:42.779Z,94.90
2022-11-25T01:17:10.942Z,100.90
2022-11-25T01:19:40.831Z,98.70
2022-11-25T01:22:10.160Z,96.50
2022-11-25T01:24:38.611Z,98.10
2022-11-25T01:27:07.186Z,100.30
2022-11-25T01:29:35.371Z,101.90
2022-11-25T01:32:03.520Z,103.00
2022-11-25T01:34:34.994Z,94.90
2022-11-25T01:37:03.725Z,97.20
2022-11-25T01:39:33.066Z,100.90
2022-11-25T01:42:02.524Z,100.20
2022-11-25T01:44:33.158Z,100.50
2022-11-25T01:47:17.254Z,97.10
2022-11-25T01:50:04.210Z,102.50
2022-11-25T01:52:38.479Z,95.60
2022-11-25T01:55:15.246Z,96.00
2022-11-25T01:57:51.009Z,97.20
2022-11-25T02:00:19.902Z,97.00
2022-11-25T02:02:51.170Z,97.60
2022-11-25T02:05:34.031Z,99.20
2022-11-25T02:08:04.201Z,96.10
2022-11-25T02:10:34.642Z,101.30
2022-11-25T02:13:02.625Z,98.40
2022-11-25T02:15:33.758Z,98.70
2022-11-25T02:18:02.673Z,98.30
2022-11-25T02:20:30.916Z,105.30
2022-11-25T02:23:26.383Z,94.90
2022-11-25T02:25:54.994Z,96.90
2022-11-25T02:28:26.585Z,99.50
2022-11-25T02:30:55.245Z,99.70
2022-11-25T02:33:24.373Z,103.90
2022-11-25T02:36:01.966Z,106.60
2022-11-25T02:38:41.369Z,105.90
2022-11-25T02:41:17.607Z,100.00
2022-11-25T02:43:46.094Z,101.70
2022-11-25T02:46:22.531Z,106.60
2022-11-25T02:49:08.546Z,107.30
2022-11-25T02:51:40.548Z,97.20
2022-11-25T02:54:08.999Z,103.20
2022-11-25T02:56:37.685Z,103.70
2022-11-25T02:59:07.169Z,103.00
2022-11-25T03:01:36.456Z,105.10
2022-11-25T03:04:05.057Z,103.80
2022-11-25T03:06:33.667Z,105.50
2022-11-25T03:09:02.972Z,107.20
2022-11-25T03:11:49.850Z,104.20
2022-11-25T03:14:18.085Z,102.40
2022-11-25T03:16:46.446Z,107.20
2022-11-25T03:19:14.834Z,110.70
2022-11-25T03:21:43.029Z,102.00
2022-11-25T03:24:11.235Z,115.80
2022-11-25T03:26:39.348Z,117.50
2022-11-25T03:29:08.035Z,108.80
2022-11-25T03:31:36.279Z,113.50
2022-11-25T03:34:04.429Z,116.50
2022-11-25T03:36:32.462Z,116.30
2022-11-25T03:39:01.555Z,116.30
2022-11-25T03:41:29.845Z,114.70
2022-11-25T03:43:58.010Z,115.90
2022-11-25T03:46:26.289Z,120.80
2022-11-25T03:48:54.659Z,119.40
2022-11-25T03:51:22.838Z,119.30
2022-11-25T03:53:50.986Z,119.50
2022-11-25T03:56:18.961Z,123.00
2022-11-25T03:58:47.178Z,126.70
2022-11-25T04:01:15.384Z,126.90
2022-11-25T04:03:43.595Z,130.10
2022-11-25T04:06:11.899Z,127.10
2022-11-25T04:08:40.031Z,132.80
2022-11-25T04:11:08.319Z,135.50
2022-11-25T04:13:36.475Z,132.50
2022-11-25T04:16:05.010Z,136.60
2022-11-25T04:18:33.217Z,136.30
2022-11-25T04:21:01.531Z,134.30
2022-11-25T04:23:29.827Z,137.90
2022-11-25T04:25:57.985Z,139.50
2022-11-25T04:28:26.166Z,145.00
2022-11-25T04:30:54.530Z,142.00
2022-11-25T04:33:22.707Z,147.80
2022-11-25T04:35:50.831Z,149.70
2022-11-25T04:38:19.055Z,141.50
2022-11-25T04:40:47.175Z,135.10
2022-11-25T04:43:15.355Z,152.30
2022-11-25T04:46:12.393Z,158.20
2022-11-25T04:48:32.066Z,156.10
2022-11-25T04:51:00.253Z,169.90
2022-11-25T04:53:28.450Z,166.30
2022-11-25T04:55:56.575Z,189.30
2022-11-25T04:58:43.290Z,213.90
2022-11-25T05:01:11.552Z,201.90
2022-11-25T05:03:43.562Z,215.70
2022-11-25T05:06:15.005Z,208.00
2022-11-25T05:08:43.226Z,242.80
2022-11-25T05:11:11.504Z,234.10
2022-11-25T05:13:39.787Z,230.80
2022-11-25T05:16:08.206Z,243.90
2022-11-25T05:18:36.250Z,230.10
2022-11-25T05:21:05.356Z,222.40
2022-11-25T05:23:33.636Z,239.20
2022-11-25T05:26:03.696Z,243.20
2022-11-25T05:28:32.668Z,227.20
2022-11-25T05:31:00.900Z,252.10
2022-11-25T05:33:29.387Z,249.70
2022-11-25T05:36:17.475Z,254.90
2022-11-25T05:38:45.491Z,227.20
2022-11-25T05:41:13.686Z,257.80
2022-11-25T05:43:42.144Z,247.40
2022-11-25T05:46:10.870Z,257.10
2022-11-25T05:48:39.123Z,245.50
2022-11-25T05:51:07.565Z,262.50
2022-11-25T05:53:36.235Z,265.00
2022-11-25T05:56:07.107Z,251.50
2022-11-25T05:58:35.406Z,251.90
2022-11-25T06:01:08.937Z,237.40
2022-11-25T06:03:38.069Z,244.10
2022-11-25T06:06:08.298Z,271.10
2022-11-25T06:08:38.497Z,237.50
2022-11-25T06:11:12.281Z,239.40
2022-11-25T06:13:42.011Z,250.20
2022-11-25T06:16:11.942Z,259.60
2022-11-25T06:18:40.160Z,260.10
2022-11-25T06:21:10.414Z,263.80
2022-11-25T06:23:39.091Z,268.80
2022-11-25T06:26:10.935Z,258.00
2022-11-25T06:28:39.091Z,265.20
2022-11-25T06:31:08.897Z,259.10
2022-11-25T06:33:37.598Z,255.10
2022-11-25T06:36:09.027Z,265.20
2022-11-25T06:38:37.235Z,251.50
2022-11-25T06:41:06.116Z,253.90
2022-11-25T06:43:34.346Z,246.80
2022-11-25T06:46:06.038Z,242.20
2022-11-25T06:48:35.042Z,250.00
2022-11-25T06:51:07.222Z,241.50
2022-11-25T06:53:36.110Z,235.30
2022-11-25T06:56:05.785Z,227.30
2022-11-25T06:58:36.692Z,217.80
2022-11-25T07:01:13.537Z,206.30
2022-11-25T07:03:43.173Z,200.00
2022-11-25T07:06:18.666Z,188.60
2022-11-25T07:08:47.820Z,189.40
2022-11-25T07:11:21.556Z,184.50
2022-11-25T07:13:54.035Z,161.20
2022-11-25T07:16:22.439Z,159.00
2022-11-25T07:18:50.970Z,161.10
2022-11-25T07:21:24.100Z,170.40
2022-11-25T07:23:53.075Z,169.10
2022-11-25T07:26:24.419Z,174.60
2022-11-25T07:28:57.957Z,91.50
2022-11-25T07:31:33.894Z,76.10
2022-11-25T07:34:10.587Z,73.20
2022-11-25T07:36:39.330Z,70.40
2022-11-25T07:39:11.416Z,72.40
2022-11-25T07:41:41.059Z,74.00
2022-11-25T07:44:13.492Z,70.20
2022-11-25T07:46:44.962Z,71.40
2022-11-25T07:49:16.200Z,77.80
2022-11-25T07:51:51.176Z,77.80
2022-11-25T07:54:21.417Z,76.10
2022-11-25T07:56:51.523Z,79.60
2022-11-25T07:59:22.002Z,75.10
2022-11-25T08:01:55.186Z,79.10
2022-11-25T08:04:23.897Z,77.80
2022-11-25T08:06:53.476Z,75.10
2022-11-25T08:09:28.102Z,83.50
2022-11-25T08:11:56.395Z,74.30
2022-11-25T08:14:26.217Z,72.80
2022-11-25T08:16:54.666Z,75.70
2022-11-25T08:19:28.413Z,75.40
2022-11-25T08:22:00.215Z,77.70
2022-11-25T08:24:28.447Z,76.00
2022-11-25T08:26:58.944Z,75.80
2022-11-25T08:29:27.163Z,77.40
2022-11-25T08:31:55.332Z,83.40
2022-11-25T08:34:25.934Z,79.10
2022-11-25T08:36:54.202Z,80.80
2022-11-25T08:39:50.477Z,76.00
2022-11-25T08:42:11.068Z,79.50
2022-11-25T08:44:39.305Z,78.20
2022-11-25T08:47:07.516Z,74.90
2022-11-25T08:49:40.755Z,66.00
2022-11-25T08:52:10.782Z,63.90
2022-11-25T08:54:39.048Z,63.60
2022-11-25T08:57:07.235Z,67.30
2022-11-25T08:59:36.170Z,71.10
2022-11-25T09:02:07.145Z,66.50
2022-11-25T09:04:35.963Z,69.00
2022-11-25T09:07:05.203Z,71.50
2022-11-25T09:09:33.698Z,66.90
2022-11-25T09:12:02.302Z,75.70
2022-11-25T09:14:30.520Z,68.80
2022-11-25T09:16:58.757Z,71.50
2022-11-25T09:19:26.903Z,69.10
2022-11-25T09:21:55.206Z,72.10
2022-11-25T09:24:23.275Z,67.70
2022-11-25T09:26:51.542Z,75.20
2022-11-25T09:29:19.678Z,75.30
2022-11-25T09:31:51.460Z,76.60
2022-11-25T09:34:23.086Z,75.50
2022-11-25T09:36:52.027Z,78.80
2022-11-25T09:39:20.261Z,81.10
2022-11-25T09:42:12.264Z,79.80
2022-11-25T09:45:30.657Z,80.50
2022-11-25T09:48:01.669Z,81.50
2022-11-25T09:50:50.786Z,82.00
2022-11-25T09:53:33.937Z,82.50
2022-11-25T09:56:18.036Z,85.50
2022-11-25T09:58:56.017Z,83.20
2022-11-25T10:01:30.358Z,85.70
2022-11-25T10:04:05.566Z,81.90
2022-11-25T10:06:41.227Z,85.30
2022-11-25T10:09:16.523Z,90.10
2022-11-25T10:11:57.271Z,91.80
2022-11-25T10:14:39.699Z,96.20
2022-11-25T10:17:23.242Z,93.10
2022-11-25T10:19:51.839Z,95.90
2022-11-25T10:22:42.326Z,97.80
2022-11-25T10:25:43.340Z,97.20
2022-11-25T10:28:27.097Z,102.90
2022-11-25T10:31:04.789Z,104.90
2022-11-25T10:33:58.861Z,100.10
2022-11-25T10:36:34.360Z,99.70
2022-11-25T10:39:17.919Z,97.10
2022-11-25T10:46:14.524Z,94.90
2022-11-25T10:48:47.608Z,94.60
2022-11-25T10:51:30.732Z,97.30
2022-11-25T10:54:15.749Z,99.10
2022-11-25T10:56:57.165Z,97.10
2022-11-25T10:59:25.346Z,98.30
2022-11-25T11:02:06.681Z,98.70
2022-11-25T11:04:37.041Z,89.80
2022-11-25T11:07:22.012Z,90.00
2022-11-25T11:09:50.771Z,92.90
2022-11-25T11:12:26.359Z,94.60
2022-11-25T11:15:31.256Z,96.50
2022-11-25T11:18:30.547Z,92.50
2022-11-25T11:21:00.538Z,89.10
2022-11-25T11:23:29.755Z,104.50
2022-11-25T11:26:10.749Z,97.60
2022-11-25T11:28:41.815Z,94.50
2022-11-25T11:31:21.085Z,94.00
2022-11-25T11:34:07.437Z,99.70
2022-11-25T11:37:00.524Z,97.10
2022-11-25T11:40:01.273Z,95.10
2022-11-25T11:42:32.340Z,102.10
2022-11-25T11:45:00.617Z,101.50
2022-11-25T11:47:37.792Z,97.40
2022-11-25T11:50:19.340Z,101.50
2022-11-25T11:52:59.375Z,97.30
2022-11-25T11:56:18.897Z,99.20
2022-11-25T11:59:03.322Z,91.50
2022-11-25T12:02:01.392Z,96.50
2022-11-25T12:04:52.426Z,92.90
2022-11-25T12:07:57.337Z,98.50
2022-11-25T12:11:05.328Z,98.60
2022-11-25T12:13:44.285Z,103.30
2022-11-25T12:16:18.397Z,95.50
2022-11-25T12:18:58.915Z,104.50
2022-11-25T12:21:48.618Z,102.00
2022-11-25T12:24:29.846Z,103.90
2022-11-25T12:27:28.071Z,96.40
2022-11-25T12:30:02.576Z,99.50
2022-11-25T12:32:53.615Z,97.10
2022-11-25T12:35:40.618Z,94.90
2022-11-25T12:38:26.199Z,101.40
2022-11-25T12:41:05.141Z,95.20
2022-11-25T12:43:43.171Z,98.20
2022-11-25T12:46:20.447Z,97.90
2022-11-25T12:48:48.831Z,100.30
2022-11-25T12:51:21.006Z,94.30
2022-11-25T12:54:07.955Z,102.50
2022-11-25T12:57:05.342Z,99.80
2022-11-25T13:04:02.450Z,101.10
2022-11-25T13:06:47.117Z,97.70
2022-11-25T13:09:34.115Z,106.40
2022-11-25T13:12:08.532Z,104.50
2022-11-25T13:14:56.182Z,98.10
2022-11-25T13:17:26.102Z,104.30
2022-11-25T13:20:32.516Z,105.80
2022-11-25T13:23:10.916Z,104.30
2022-11-25T13:25:42.855Z,103.40
2022-11-25T13:28:33.275Z,103.80
2022-11-25T13:31:13.653Z,106.50
2022-11-25T13:33:44.672Z,108.20
2022-11-25T13:36:18.554Z,110.50
2022-11-25T13:38:49.393Z,105.20
2022-11-25T13:41:20.276Z,105.40
2022-11-25T13:44:14.775Z,102.70
2022-11-25T13:46:53.010Z,106.50
2022-11-25T13:49:27.175Z,110.20
2022-11-25T13:52:00.204Z,104.70
2022-11-25T13:54:47.168Z,104.40
2022-11-25T13:57:24.237Z,107.20
2022-11-25T13:59:54.006Z,107.70
2022-11-25T14:02:45.796Z,105.20
2022-11-25T14:05:25.396Z,104.30
2022-11-25T14:08:26.641Z,105.90
2022-11-25T14:11:20.426Z,110.10
2022-11-25T14:14:14.487Z,105.10
2022-11-25T14:16:57.790Z,105.60
2022-11-25T14:20:04.194Z,105.00
2022-11-25T14:22:50.314Z,104.00
2022-11-25T14:25:29.407Z,109.90
2022-11-25T14:28:10.899Z,104.70
2022-11-25T14:31:07.611Z,109.10
2022-11-25T14:33:48.920Z,112.10
2022-11-25T14:36:25.226Z,112.60
2022-11-25T14:39:02.455Z,108.50
2022-11-25T14:41:33.058Z,111.90
2022-11-25T14:44:07.381Z,112.60
2022-11-25T14:46:54.764Z,114.50
2022-11-25T14:49:48.892Z,113.60
2022-11-25T14:52:18.937Z,110.20
2022-11-25T14:54:47.363Z,118.90
2022-11-25T14:57:21.352Z,115.10
2022-11-25T14:59:50.389Z,119.30
2022-11-25T15:02:32.154Z,110.60
2022-11-25T15:05:17.225Z,113.10
2022-11-25T15:07:57.920Z,115.00
2022-11-25T15:10:31.306Z,112.10
2022-11-25T15:13:03.216Z,117.20
2022-11-25T15:15:31.319Z,115.60
2022-11-25T15:18:05.882Z,115.90
2022-11-25T15:20:35.471Z,111.60
2022-11-25T15:23:04.667Z,105.10
2022-11-25T15:25:32.899Z,106.80
2022-11-25T15:28:01.115Z,113.00
2022-11-25T15:30:29.788Z,111.90
2022-11-25T15:32:58.649Z,111.30
2022-11-25T15:35:27.797Z,109.50
2022-11-25T15:37:55.975Z,110.50
2022-11-25T15:40:37.955Z,112.20
2022-11-25T15:43:21.143Z,111.10
2022-11-25T15:45:52.993Z,113.30
2022-11-25T15:48:31.394Z,111.90
2022-11-25T15:51:22.246Z,112.20
2022-11-25T15:54:06.227Z,112.50
2022-11-25T15:56:39.798Z,115.10
2022-11-25T15:59:46.827Z,117.20
2022-11-25T16:02:36.791Z,115.80
2022-11-25T16:05:14.630Z,122.90
2022-11-25T16:07:51.866Z,123.00
2022-11-25T16:10:22.505Z,120.70
2022-11-25T16:13:22.711Z,125.10
2022-11-25T16:15:53.437Z,126.50
2022-11-25T16:18:40.269Z,124.90
2022-11-25T16:21:16.097Z,126.00
2022-11-25T16:23:53.320Z,124.40
2022-11-25T16:26:37.897Z,123.10
2022-11-25T16:29:20.713Z,124.80
2022-11-25T16:31:49.247Z,127.20
2022-11-25T16:34:20.545Z,122.10
2022-11-25T16:36:48.778Z,131.40
2022-11-25T16:39:16.945Z,126.00
2022-11-25T16:41:55.926Z,139.70
2022-11-25T16:44:26.762Z,132.70
2022-11-25T16:46:55.047Z,126.50
2022-11-25T16:49:26.679Z,134.90
2022-11-25T16:51:54.912Z,133.20
2022-11-25T16:54:23.829Z,135.70
2022-11-25T16:56:55.335Z,136.80
2022-11-25T16:59:32.170Z,142.00
2022-11-25T17:02:01.555Z,133.30
2022-11-25T17:04:29.946Z,129.80
2022-11-25T17:07:31.247Z,142.80
2022-11-25T17:09:46.824Z,136.30
2022-11-25T17:12:20.501Z,131.50
2022-11-25T17:14:49.381Z,130.60
2022-11-25T17:17:24.938Z,142.00
2022-11-25T17:19:53.546Z,136.20
2022-11-25T17:22:25.967Z,135.20
2022-11-25T17:24:54.223Z,135.90
2022-11-25T17:27:29.901Z,138.20
2022-11-25T17:30:01.774Z,132.70
2022-11-25T17:32:31.188Z,128.70
2022-11-25T17:34:59.716Z,124.20
2022-11-25T17:37:31.206Z,133.90
2022-11-25T17:39:59.661Z,130.10
2022-11-25T17:42:32.470Z,137.10
2022-11-25T17:45:01.202Z,138.50
2022-11-25T17:47:29.509Z,146.20
2022-11-25T17:49:58.140Z,159.70
2022-11-25T17:52:26.392Z,165.70
2022-11-25T17:54:54.614Z,167.40
2022-11-25T17:57:23.482Z,176.80
2022-11-25T17:59:51.647Z,176.60
2022-11-25T18:02:21.997Z,204.90
2022-11-25T18:04:50.680Z,212.00
2022-11-25T18:07:19.230Z,204.80
2022-11-25T18:09:47.667Z,219.00
2022-11-25T18:12:23.449Z,221.50
2022-11-25T18:14:51.604Z,241.80
2022-11-25T18:17:19.992Z,242.00
2022-11-25T18:19:55.065Z,242.20
2022-11-25T18:22:24.332Z,246.20
2022-11-25T18:24:54.108Z,254.80
2022-11-25T18:27:27.373Z,249.70
2022-11-25T18:29:57.397Z,256.40
2022-11-25T18:32:25.806Z,269.40
2022-11-25T18:34:54.062Z,261.50
2022-11-25T18:37:22.247Z,262.90
2022-11-25T18:39:50.525Z,268.50
2022-11-25T18:42:27.987Z,265.80
2022-11-25T18:44:56.926Z,280.10
2022-11-25T18:47:25.273Z,263.80
2022-11-25T18:49:56.140Z,300.50
2022-11-25T18:52:25.324Z,299.50
2022-11-25T18:54:53.546Z,281.60
2022-11-25T18:57:21.679Z,290.90
2022-11-25T19:00:00.218Z,273.90
2022-11-25T19:02:38.466Z,310.10
2022-11-25T19:05:16.476Z,295.30
2022-11-25T19:07:48.629Z,323.70
2022-11-25T19:10:17.626Z,336.40
2022-11-25T19:12:50.382Z,344.20
2022-11-25T19:15:23.877Z,340.10
2022-11-25T19:17:57.211Z,417.10
2022-11-25T19:20:29.192Z,315.10
2022-11-25T19:23:00.867Z,401.30
2022-11-25T19:25:29.934Z,386.60
2022-11-25T19:28:00.403Z,367.50
2022-11-25T19:30:33.175Z,410.40
2022-11-25T19:33:02.383Z,373.80
2022-11-25T19:35:37.716Z,430.80
2022-11-25T19:38:37.994Z,516.40
2022-11-25T19:41:06.276Z,444.90
2022-11-25T19:43:34.568Z,513.00
2022-11-25T19:46:03.748Z,444.40
2022-11-25T19:48:39.029Z,381.60
2022-11-25T19:51:18.155Z,460.20
2022-11-25T19:53:46.236Z,414.10
2022-11-25T19:56:27.855Z,402.40
2022-11-25T19:58:57.073Z,443.30
2022-11-25T20:01:33.107Z,351.00
2022-11-25T20:04:03.551Z,375.40
2022-11-25T20:06:32.346Z,405.70
2022-11-25T20:09:06.486Z,459.90
2022-11-25T20:11:36.971Z,377.10
2022-11-25T20:14:05.592Z,395.60
2022-11-25T20:16:40.194Z,393.30
2022-11-25T20:19:17.176Z,434.70
2022-11-25T20:21:46.870Z,419.00
2022-11-25T20:24:19.881Z,455.50
2022-11-25T20:26:49.131Z,406.00
2022-11-25T20:29:27.345Z,359.40
2022-11-25T20:31:58.620Z,376.40
2022-11-25T20:34:28.466Z,405.50
2022-11-25T20:36:56.846Z,597.20
2022-11-25T20:39:25.461Z,425.50
2022-11-25T20:41:53.820Z,437.00
2022-11-25T20:44:22.076Z,448.30
2022-11-25T20:46:50.297Z,562.90
2022-11-25T20:49:25.849Z,487.50
2022-11-25T20:51:54.432Z,456.80
2022-11-25T20:54:25.397Z,579.30
2022-11-25T20:56:56.692Z,556.40
2022-11-25T20:59:25.410Z,535.20
2022-11-25T21:01:54.907Z,469.70
2022-11-25T21:04:23.506Z,563.50
2022-11-25T21:06:51.933Z,552.90
2022-11-25T21:09:25.180Z,584.00
2022-11-25T21:11:53.575Z,592.10
2022-11-25T21:14:21.790Z,637.50
2022-11-25T21:16:50.058Z,585.20
2022-11-25T21:19:19.137Z,613.80
2022-11-25T21:21:50.076Z,561.30
2022-11-25T21:24:45.406Z,511.50
2022-11-25T21:27:16.063Z,639.50
2022-11-25T21:29:46.460Z,796.30
2022-11-25T21:32:21.796Z,656.60
2022-11-25T21:34:50.921Z,609.50
2022-11-25T21:37:42.098Z,718.70
2022-11-25T21:40:22.462Z,689.40
2022-11-25T21:42:50.979Z,759.30
2022-11-25T21:45:19.616Z,684.30
2022-11-25T21:47:47.957Z,611.50
2022-11-25T21:50:18.098Z,807.30
2022-11-25T21:52:46.331Z,904.80
2022-11-25T21:55:16.941Z,821.10
2022-11-25T21:57:45.325Z,802.50
2022-11-25T22:00:21.837Z,595.80
2022-11-25T22:02:53.162Z,778.40
2022-11-25T22:05:26.115Z,775.50
2022-11-25T22:07:55.226Z,905.70
2022-11-25T22:10:24.325Z,867.30
2022-11-25T22:12:52.542Z,705.10
2022-11-25T22:15:23.271Z,882.50
2022-11-25T22:17:56.917Z,591.40
2022-11-25T22:20:34.355Z,670.30
2022-11-25T22:23:10.176Z,659.60
2022-11-25T22:25:38.387Z,688.00
2022-11-25T22:28:06.816Z,671.90
2022-11-25T22:30:35.052Z,740.20
2022-11-25T22:33:03.956Z,769.80
2022-11-25T22:35:32.275Z,776.00
2022-11-25T22:38:00.490Z,838.30
2022-11-25T22:40:29.056Z,729.70
2022-11-25T22:42:57.277Z,704.50
2022-11-25T22:45:30.975Z,805.10
2022-11-25T22:48:06.094Z,854.90
2022-11-25T22:50:35.076Z,729.00
2022-11-25T22:53:03.183Z,877.90
2022-11-25T22:55:33.815Z,862.90
2022-11-25T22:58:04.806Z,779.90
2022-11-25T23:00:37.832Z,886.30
2022-11-25T23:03:15.980Z,853.30
2022-11-25T23:05:44.440Z,754.60
2022-11-25T23:08:19.976Z,918.50
2022-11-25T23:10:50.706Z,918.30
2022-11-25T23:13:20.644Z,974.40
2022-11-25T23:15:55.567Z,816.70
2022-11-25T23:18:36.777Z,1007.50
2022-11-25T23:21:15.871Z,890.50
2022-11-25T23:23:44.295Z,877.40
2022-11-25T23:26:13.767Z,783.60
2022-11-25T23:28:42.293Z,925.70
2022-11-25T23:31:14.561Z,864.80
2022-11-25T23:33:50.117Z,1093.00
2022-11-25T23:36:21.997Z,952.90
2022-11-25T23:38:57.293Z,809.10
2022-11-25T23:41:28.314Z,1024.30
2022-11-25T23:43:58.809Z,1005.00
2022-11-25T23:46:33.342Z,947.30
2022-11-25T23:49:04.846Z,1117.80
2022-11-25T23:51:33.570Z,865.50
2022-11-25T23:54:01.982Z,922.40
2022-11-25T23:56:30.137Z,964.90
2022-11-25T23:58:58.334Z,1041.90
